Alsace — PB4786 — position and weather

sailwx.info

Track history (hours):
 
Tides and Currents Weather Stations Pressure Air Temp Water Temp Dewpoint Dewpoint Depression Visibility Wind Speed Wind Dir Waves Ship Positions

Alsace

Last reported at 2017-Apr-25 01:32 UTC. Time now 2017-Apr-25 08:38 UTC.
Position N 51°19' E 004°17'.

Length 178 m; draft 1.8 m.

Type: Ship. MMSI: 244660556.

Date/timePositionNaut miles runAvg speedWind from/ knotsBaromVisibWave heightAir tempDewpointWater temp
2017-Apr-25 01:32N 51°19' E 004°17'0 0.0
2017-Apr-25 01:25N 51°19' E 004°17'0 0.0
2017-Apr-25 00:58N 51°19' E 004°17'0 0.0
2017-Apr-24 22:59N 51°19' E 004°17'1 2.2
2017-Apr-24 22:23N 51°18' E 004°16'0 0.0
2017-Apr-24 21:59N 51°18' E 004°16'0 0.0
2017-Apr-24 21:30N 51°18' E 004°16'0 0.0
2017-Apr-24 21:00N 51°18' E 004°16'0 0.0
2017-Apr-24 20:30N 51°18' E 004°16'0 0.4
2017-Apr-24 20:00N 51°18' E 004°16'0 0.2
2017-Apr-24 19:23N 51°18' E 004°16'2 5.8
2017-Apr-24 18:58N 51°20' E 004°16'1 1.1
2017-Apr-24 18:30N 51°21' E 004°16'0 0.2
2017-Apr-24 18:00N 51°21' E 004°16'1 1.4
2017-Apr-24 17:29N 51°20' E 004°17'0 0.0
2017-Apr-24 16:59N 51°20' E 004°17'1 2.6
2017-Apr-24 16:30N 51°19' E 004°17'0 0.0
2017-Apr-24 16:01N 51°19' E 004°17'2 2.4
2017-Apr-24 15:22N 51°20' E 004°16'1 1.4
2017-Apr-24 14:47N 51°21' E 004°18'1 1.8
2017-Apr-24 14:26N 51°21' E 004°18'24 3.6
2017-Apr-24 07:53N 51°42' E 004°35'3 6.2
2017-Apr-24 07:27N 51°44' E 004°38'3 5.9
2017-Apr-24 07:00N 51°47' E 004°38'3 6.1
2017-Apr-24 06:30N 51°50' E 004°40'1 2.3
2017-Apr-24 06:00N 51°51' E 004°40'0 0.0
2017-Apr-24 05:30N 51°51' E 004°40'1 2.9
2017-Apr-24 05:00N 51°49' E 004°40'4 8.9
2017-Apr-24 04:30N 51°49' E 004°48'4 9.0
2017-Apr-24 04:00N 51°50' E 004°55'8 8.5
2017-Apr-24 03:04N 51°49' E 005°08'4 8.8
2017-Apr-24 02:40N 51°49' E 005°13'1 9.5
2017-Apr-24 02:30N 51°49' E 005°16'4 8.0
2017-Apr-24 01:59N 51°49' E 005°22'5 9.4
2017-Apr-24 01:25N 51°53' E 005°27'4 9.5
2017-Apr-24 01:00N 51°54' E 005°33'5 9.7
2017-Apr-24 00:30N 51°54' E 005°41'5 9.5
2017-Apr-24 00:00N 51°52' E 005°49'4 7.6
2017-Apr-23 23:30N 51°52' E 005°55'3 6.7
2017-Apr-23 23:00N 51°53' E 006°00'5 9.2
2017-Apr-23 22:30N 51°51' E 006°07'5 9.6
2017-Apr-23 22:00N 51°50' E 006°14'5 9.2
2017-Apr-23 21:30N 51°46' E 006°20'4 8.3
2017-Apr-23 21:00N 51°44' E 006°25'4 7.9
2017-Apr-23 20:30N 51°41' E 006°28'5 8.9
2017-Apr-23 19:57N 51°39' E 006°36'5 6.6
2017-Apr-23 19:12N 51°35' E 006°39'2 8.4
2017-Apr-23 19:00N 51°34' E 006°41'4 8.2
2017-Apr-23 18:30N 51°30' E 006°43'3 5.8
2017-Apr-23 18:00N 51°27' E 006°43'4 8.2
2017-Apr-23 17:28N 51°23' E 006°43'6 6.4
2017-Apr-23 16:29N 51°16' E 006°42'4 7.6
2017-Apr-23 16:00N 51°13' E 006°45'2 4.7
2017-Apr-23 15:30N 51°11' E 006°45'16 6.8
2017-Apr-23 13:12N 50°58' E 006°60'2 9.1
2017-Apr-23 12:56N 50°56' E 006°58'4 8.5
2017-Apr-23 12:29N 50°54' E 007°03'4 7.9
2017-Apr-23 11:54N 50°50' E 006°59'6 8.9
2017-Apr-23 11:14N 50°45' E 007°06'2 9.4
2017-Apr-23 10:59N 50°43' E 007°08'102 6.6
2017-Apr-22 19:25N 49°14' E 008°23'102 3.5
2017-Apr-21 14:44N 47°37' E 007°34'2 0.1
2017-Apr-20 15:57N 47°35' E 007°35'2 4.4
2017-Apr-20 15:30N 47°33' E 007°37'1 2.0
2017-Apr-20 15:00N 47°34' E 007°38'2 3.3
2017-Apr-20 14:31N 47°32' E 007°40'0 0.0
2017-Apr-20 13:30N 47°32' E 007°40'0 0.0
2017-Apr-20 13:00N 47°32' E 007°40'0 0.0
2017-Apr-20 12:30N 47°32' E 007°40'0 0.0
2017-Apr-20 12:00N 47°32' E 007°40'0 0.0
2017-Apr-20 11:30N 47°32' E 007°40'0 0.0
2017-Apr-20 11:00N 47°32' E 007°40'0 0.0
2017-Apr-20 10:29N 47°32' E 007°40'0 0.0
2017-Apr-20 10:00N 47°32' E 007°40'0 0.0
2017-Apr-20 09:30N 47°32' E 007°40'0 0.0
2017-Apr-20 09:00N 47°32' E 007°40'0 0.0
2017-Apr-20 08:30N 47°32' E 007°40'0 0.0
2017-Apr-20 08:00N 47°32' E 007°40'0 0.0
2017-Apr-20 07:30N 47°32' E 007°40'0 0.0
2017-Apr-20 07:00N 47°32' E 007°40'0 0.0
2017-Apr-20 06:30N 47°32' E 007°40'0 0.4
2017-Apr-20 06:00N 47°33' E 007°40'  
2017-Apr-17 09:12N 49°13' E 008°23'0 0.2
2017-Apr-17 08:48N 49°13' E 008°23'99 3.7
2017-Apr-16 06:11N 50°41' E 007°11'1 5.4
2017-Apr-16 05:58N 50°42' E 007°10'3 5.0
2017-Apr-16 05:27N 50°44' E 007°07'2 5.0
2017-Apr-16 05:01N 50°46' E 007°06'4 4.9
2017-Apr-16 04:13N 50°49' E 007°02'1 4.5
2017-Apr-16 03:56N 50°49' E 007°00'2 3.1
2017-Apr-16 03:23N 50°51' E 007°00'2 5.0
2017-Apr-16 02:58N 50°53' E 007°03'2 3.7
2017-Apr-16 02:28N 50°54' E 007°00'2 4.1
2017-Apr-16 01:59N 50°55' E 006°58'15 4.2
2017-Apr-15 22:19N 51°10' E 006°51'2 4.9
2017-Apr-15 21:55N 51°09' E 006°48'2 4.6
2017-Apr-15 21:30N 51°10' E 006°48'2 4.8
2017-Apr-15 21:00N 51°11' E 006°44'3 5.2
2017-Apr-15 20:30N 51°14' E 006°44'2 3.4
2017-Apr-15 20:00N 51°14' E 006°46'3 5.3
2017-Apr-15 19:26N 51°16' E 006°42'7 3.4
2017-Apr-15 17:28N 51°23' E 006°43'2 5.1
2017-Apr-15 17:00N 51°25' E 006°45'3 5.1
2017-Apr-15 16:31N 51°27' E 006°43'2 4.6
2017-Apr-15 16:01N 51°29' E 006°41'2 4.9
2017-Apr-15 15:30N 51°31' E 006°43'3 5.5
2017-Apr-15 15:00N 51°33' E 006°41'7 3.9
2017-Apr-15 13:12N 51°39' E 006°36'2 5.6
2017-Apr-15 12:54N 51°39' E 006°33'3 6.0
2017-Apr-15 12:29N 51°40' E 006°29'3 6.0
2017-Apr-15 12:01N 51°42' E 006°27'2 4.4
2017-Apr-15 11:30N 51°44' E 006°25'2 4.4
2017-Apr-15 11:01N 51°45' E 006°22'3 5.9
2017-Apr-15 10:30N 51°48' E 006°19'3 6.7
2017-Apr-15 10:01N 51°50' E 006°15'3 5.9
2017-Apr-15 09:30N 51°50' E 006°10'3 6.5
2017-Apr-15 09:00N 51°51' E 006°05'3 6.8
2017-Apr-15 08:31N 51°53' E 006°01'3 5.1
2017-Apr-15 08:01N 51°52' E 005°57'3 5.0
2017-Apr-15 07:30N 51°51' E 005°53'3 5.4
2017-Apr-15 07:01N 51°52' E 005°49'3 6.5
2017-Apr-15 06:30N 51°53' E 005°44'3 6.4
2017-Apr-15 06:01N 51°54' E 005°39'3 6.7
2017-Apr-15 05:30N 51°54' E 005°33'3 6.5
2017-Apr-15 05:00N 51°53' E 005°28'7 6.5
2017-Apr-15 04:00N 51°48' E 005°21'7 6.4
2017-Apr-15 02:53N 51°49' E 005°10'3 7.1
2017-Apr-15 02:30N 51°50' E 005°06'4 7.5
2017-Apr-15 02:00N 51°49' E 004°60'  
Track history (hours):
 
Tides and Currents Weather Stations Pressure Air Temp Water Temp Dewpoint Dewpoint Depression Visibility Wind Speed Wind Dir Waves Ship Positions

Alsace

Last reported at 2017-Apr-25 01:32 UTC. Time now 2017-Apr-25 08:38 UTC.
Position N 51°19' E 004°17'.

Length 178 m; draft 1.8 m.

Type: Ship. MMSI: 244660556.

Date/timePositionNaut miles runAvg speedWind from/ knotsBaromVisibWave heightAir tempDewpointWater temp
2017-Apr-25 01:32N 51°19' E 004°17'0 0.0
2017-Apr-25 01:25N 51°19' E 004°17'0 0.0
2017-Apr-25 00:58N 51°19' E 004°17'0 0.0
2017-Apr-24 22:59N 51°19' E 004°17'1 2.2
2017-Apr-24 22:23N 51°18' E 004°16'0 0.0
2017-Apr-24 21:59N 51°18' E 004°16'0 0.0
2017-Apr-24 21:30N 51°18' E 004°16'0 0.0
2017-Apr-24 21:00N 51°18' E 004°16'0 0.0
2017-Apr-24 20:30N 51°18' E 004°16'0 0.4
2017-Apr-24 20:00N 51°18' E 004°16'0 0.2
2017-Apr-24 19:23N 51°18' E 004°16'2 5.8
2017-Apr-24 18:58N 51°20' E 004°16'1 1.1
2017-Apr-24 18:30N 51°21' E 004°16'0 0.2
2017-Apr-24 18:00N 51°21' E 004°16'1 1.4
2017-Apr-24 17:29N 51°20' E 004°17'0 0.0
2017-Apr-24 16:59N 51°20' E 004°17'1 2.6
2017-Apr-24 16:30N 51°19' E 004°17'0 0.0
2017-Apr-24 16:01N 51°19' E 004°17'2 2.4
2017-Apr-24 15:22N 51°20' E 004°16'1 1.4
2017-Apr-24 14:47N 51°21' E 004°18'1 1.8
2017-Apr-24 14:26N 51°21' E 004°18'24 3.6
2017-Apr-24 07:53N 51°42' E 004°35'3 6.2
2017-Apr-24 07:27N 51°44' E 004°38'3 5.9
2017-Apr-24 07:00N 51°47' E 004°38'3 6.1
2017-Apr-24 06:30N 51°50' E 004°40'1 2.3
2017-Apr-24 06:00N 51°51' E 004°40'0 0.0
2017-Apr-24 05:30N 51°51' E 004°40'1 2.9
2017-Apr-24 05:00N 51°49' E 004°40'4 8.9
2017-Apr-24 04:30N 51°49' E 004°48'4 9.0
2017-Apr-24 04:00N 51°50' E 004°55'8 8.5
2017-Apr-24 03:04N 51°49' E 005°08'4 8.8
2017-Apr-24 02:40N 51°49' E 005°13'1 9.5
2017-Apr-24 02:30N 51°49' E 005°16'4 8.0
2017-Apr-24 01:59N 51°49' E 005°22'5 9.4
2017-Apr-24 01:25N 51°53' E 005°27'4 9.5
2017-Apr-24 01:00N 51°54' E 005°33'5 9.7
2017-Apr-24 00:30N 51°54' E 005°41'5 9.5
2017-Apr-24 00:00N 51°52' E 005°49'4 7.6
2017-Apr-23 23:30N 51°52' E 005°55'3 6.7
2017-Apr-23 23:00N 51°53' E 006°00'5 9.2
2017-Apr-23 22:30N 51°51' E 006°07'5 9.6
2017-Apr-23 22:00N 51°50' E 006°14'5 9.2
2017-Apr-23 21:30N 51°46' E 006°20'4 8.3
2017-Apr-23 21:00N 51°44' E 006°25'4 7.9
2017-Apr-23 20:30N 51°41' E 006°28'5 8.9
2017-Apr-23 19:57N 51°39' E 006°36'5 6.6
2017-Apr-23 19:12N 51°35' E 006°39'2 8.4
2017-Apr-23 19:00N 51°34' E 006°41'4 8.2
2017-Apr-23 18:30N 51°30' E 006°43'3 5.8
2017-Apr-23 18:00N 51°27' E 006°43'4 8.2
2017-Apr-23 17:28N 51°23' E 006°43'6 6.4
2017-Apr-23 16:29N 51°16' E 006°42'4 7.6
2017-Apr-23 16:00N 51°13' E 006°45'2 4.7
2017-Apr-23 15:30N 51°11' E 006°45'16 6.8
2017-Apr-23 13:12N 50°58' E 006°60'2 9.1
2017-Apr-23 12:56N 50°56' E 006°58'4 8.5
2017-Apr-23 12:29N 50°54' E 007°03'4 7.9
2017-Apr-23 11:54N 50°50' E 006°59'6 8.9
2017-Apr-23 11:14N 50°45' E 007°06'2 9.4
2017-Apr-23 10:59N 50°43' E 007°08'102 6.6
2017-Apr-22 19:25N 49°14' E 008°23'102 3.5
2017-Apr-21 14:44N 47°37' E 007°34'2 0.1
2017-Apr-20 15:57N 47°35' E 007°35'2 4.4
2017-Apr-20 15:30N 47°33' E 007°37'1 2.0
2017-Apr-20 15:00N 47°34' E 007°38'2 3.3
2017-Apr-20 14:31N 47°32' E 007°40'0 0.0
2017-Apr-20 13:30N 47°32' E 007°40'0 0.0
2017-Apr-20 13:00N 47°32' E 007°40'0 0.0
2017-Apr-20 12:30N 47°32' E 007°40'0 0.0
2017-Apr-20 12:00N 47°32' E 007°40'0 0.0
2017-Apr-20 11:30N 47°32' E 007°40'0 0.0
2017-Apr-20 11:00N 47°32' E 007°40'0 0.0
2017-Apr-20 10:29N 47°32' E 007°40'0 0.0
2017-Apr-20 10:00N 47°32' E 007°40'0 0.0
2017-Apr-20 09:30N 47°32' E 007°40'0 0.0
2017-Apr-20 09:00N 47°32' E 007°40'0 0.0
2017-Apr-20 08:30N 47°32' E 007°40'0 0.0
2017-Apr-20 08:00N 47°32' E 007°40'0 0.0
2017-Apr-20 07:30N 47°32' E 007°40'0 0.0
2017-Apr-20 07:00N 47°32' E 007°40'0 0.0
2017-Apr-20 06:30N 47°32' E 007°40'0 0.4
2017-Apr-20 06:00N 47°33' E 007°40'  
2017-Apr-17 09:12N 49°13' E 008°23'0 0.2
2017-Apr-17 08:48N 49°13' E 008°23'99 3.7
2017-Apr-16 06:11N 50°41' E 007°11'1 5.4
2017-Apr-16 05:58N 50°42' E 007°10'3 5.0
2017-Apr-16 05:27N 50°44' E 007°07'2 5.0
2017-Apr-16 05:01N 50°46' E 007°06'4 4.9
2017-Apr-16 04:13N 50°49' E 007°02'1 4.5
2017-Apr-16 03:56N 50°49' E 007°00'2 3.1
2017-Apr-16 03:23N 50°51' E 007°00'2 5.0
2017-Apr-16 02:58N 50°53' E 007°03'2 3.7
2017-Apr-16 02:28N 50°54' E 007°00'2 4.1
2017-Apr-16 01:59N 50°55' E 006°58'15 4.2
2017-Apr-15 22:19N 51°10' E 006°51'2 4.9
2017-Apr-15 21:55N 51°09' E 006°48'2 4.6
2017-Apr-15 21:30N 51°10' E 006°48'2 4.8
2017-Apr-15 21:00N 51°11' E 006°44'3 5.2
2017-Apr-15 20:30N 51°14' E 006°44'2 3.4
2017-Apr-15 20:00N 51°14' E 006°46'3 5.3
2017-Apr-15 19:26N 51°16' E 006°42'7 3.4
2017-Apr-15 17:28N 51°23' E 006°43'2 5.1
2017-Apr-15 17:00N 51°25' E 006°45'3 5.1
2017-Apr-15 16:31N 51°27' E 006°43'2 4.6
2017-Apr-15 16:01N 51°29' E 006°41'2 4.9
2017-Apr-15 15:30N 51°31' E 006°43'3 5.5
2017-Apr-15 15:00N 51°33' E 006°41'7 3.9
2017-Apr-15 13:12N 51°39' E 006°36'2 5.6
2017-Apr-15 12:54N 51°39' E 006°33'3 6.0
2017-Apr-15 12:29N 51°40' E 006°29'3 6.0
2017-Apr-15 12:01N 51°42' E 006°27'2 4.4
2017-Apr-15 11:30N 51°44' E 006°25'2 4.4
2017-Apr-15 11:01N 51°45' E 006°22'3 5.9
2017-Apr-15 10:30N 51°48' E 006°19'3 6.7
2017-Apr-15 10:01N 51°50' E 006°15'3 5.9
2017-Apr-15 09:30N 51°50' E 006°10'3 6.5
2017-Apr-15 09:00N 51°51' E 006°05'3 6.8
2017-Apr-15 08:31N 51°53' E 006°01'3 5.1
2017-Apr-15 08:01N 51°52' E 005°57'3 5.0
2017-Apr-15 07:30N 51°51' E 005°53'3 5.4
2017-Apr-15 07:01N 51°52' E 005°49'3 6.5
2017-Apr-15 06:30N 51°53' E 005°44'3 6.4
2017-Apr-15 06:01N 51°54' E 005°39'3 6.7
2017-Apr-15 05:30N 51°54' E 005°33'3 6.5
2017-Apr-15 05:00N 51°53' E 005°28'7 6.5
2017-Apr-15 04:00N 51°48' E 005°21'7 6.4
2017-Apr-15 02:53N 51°49' E 005°10'3 7.1
2017-Apr-15 02:30N 51°50' E 005°06'4 7.5
2017-Apr-15 02:00N 51°49' E 004°60'  

Dump ship's entire track history